createdAt,value
2022-11-24T00:00:23.484Z,2.55
2022-11-24T00:03:11.319Z,2.53
2022-11-24T00:05:38.859Z,2.51
2022-11-24T00:08:06.741Z,2.51
2022-11-24T00:10:34.344Z,2.52
2022-11-24T00:13:01.748Z,2.51
2022-11-24T00:15:29.334Z,2.51
2022-11-24T00:17:56.991Z,2.52
2022-11-24T00:20:24.600Z,2.52
2022-11-24T00:22:52.266Z,2.52
2022-11-24T00:25:19.929Z,2.55
2022-11-24T00:27:47.631Z,2.57
2022-11-24T00:30:15.586Z,2.56
2022-11-24T00:32:43.139Z,2.56
2022-11-24T00:35:10.863Z,2.54
2022-11-24T00:37:38.432Z,2.55
2022-11-24T00:40:07.951Z,2.55
2022-11-24T00:42:35.556Z,2.54
2022-11-24T00:45:13.200Z,2.51
2022-11-24T00:47:41.729Z,2.51
2022-11-24T00:50:09.867Z,2.50
2022-11-24T00:52:37.423Z,2.50
2022-11-24T00:55:05.371Z,2.50
2022-11-24T00:57:35.186Z,2.50
2022-11-24T01:00:02.915Z,2.53
2022-11-24T01:02:30.513Z,2.53
2022-11-24T01:04:58.305Z,2.52
2022-11-24T01:07:25.928Z,2.53
2022-11-24T01:09:53.454Z,2.54
2022-11-24T01:12:20.915Z,2.53
2022-11-24T01:14:48.555Z,2.52
2022-11-24T01:17:16.226Z,2.51
2022-11-24T01:19:46.934Z,2.52
2022-11-24T01:22:15.392Z,2.52
2022-11-24T01:24:43.038Z,2.52
2022-11-24T01:27:10.686Z,2.54
2022-11-24T01:29:38.437Z,2.54
2022-11-24T01:32:06.335Z,2.54
2022-11-24T01:34:34.313Z,2.54
2022-11-24T01:37:02.513Z,2.55
2022-11-24T01:39:30.167Z,2.56
2022-11-24T01:42:01.699Z,2.57
2022-11-24T01:44:30.923Z,2.57
2022-11-24T01:47:53.033Z,2.55
2022-11-24T01:50:20.941Z,2.53
2022-11-24T01:52:53.983Z,2.52
2022-11-24T01:55:29.466Z,2.50
2022-11-24T01:58:13.106Z,2.49
2022-11-24T02:00:44.189Z,2.48
2022-11-24T02:03:14.201Z,2.47
2022-11-24T02:06:00.524Z,2.46
2022-11-24T02:08:51.982Z,2.46
2022-11-24T02:11:21.392Z,2.43
2022-11-24T02:13:50.384Z,2.43
2022-11-24T02:16:18.029Z,2.43
2022-11-24T02:18:45.945Z,2.43
2022-11-24T02:21:15.728Z,2.40
2022-11-24T02:24:13.687Z,2.38
2022-11-24T02:26:44.928Z,2.36
2022-11-24T02:29:13.723Z,2.34
2022-11-24T02:32:09.240Z,2.32
2022-11-24T02:34:36.943Z,2.30
2022-11-24T02:37:04.498Z,2.29
2022-11-24T02:39:32.087Z,2.29
2022-11-24T02:42:05.951Z,2.30
2022-11-24T02:44:48.163Z,2.31
2022-11-24T02:47:15.906Z,2.32
2022-11-24T02:49:43.532Z,2.33
2022-11-24T02:52:10.912Z,2.34
2022-11-24T02:54:38.624Z,2.35
2022-11-24T02:57:06.536Z,2.36
2022-11-24T02:59:34.470Z,2.37
2022-11-24T03:02:02.531Z,2.37
2022-11-24T03:04:30.372Z,2.39
2022-11-24T03:06:58.016Z,2.41
2022-11-24T03:09:25.872Z,2.42
2022-11-24T03:11:53.951Z,2.45
2022-11-24T03:14:21.844Z,2.47
2022-11-24T03:16:50.455Z,2.50
2022-11-24T03:19:18.045Z,2.49
2022-11-24T03:21:46.164Z,2.50
2022-11-24T03:24:14.073Z,2.50
2022-11-24T03:26:42.131Z,2.52
2022-11-24T03:29:09.633Z,2.52
2022-11-24T03:31:37.511Z,2.52
2022-11-24T03:34:05.232Z,2.52
2022-11-24T03:36:32.900Z,2.52
2022-11-24T03:39:00.678Z,2.53
2022-11-24T03:41:28.982Z,2.54
2022-11-24T03:44:00.288Z,2.52
2022-11-24T03:46:27.846Z,2.52
2022-11-24T03:48:55.620Z,2.52
2022-11-24T03:51:23.329Z,2.52
2022-11-24T03:53:51.021Z,2.52
2022-11-24T03:56:18.509Z,2.53
2022-11-24T03:58:46.447Z,2.54
2022-11-24T04:04:52.543Z,2.61
2022-11-24T04:07:21.943Z,2.63
2022-11-24T04:09:51.031Z,2.68
2022-11-24T04:12:38.646Z,2.71
2022-11-24T04:15:08.093Z,2.73
2022-11-24T04:17:37.203Z,2.77
2022-11-24T04:20:07.833Z,2.79
2022-11-24T04:22:37.132Z,2.77
2022-11-24T04:25:07.760Z,2.73
2022-11-24T04:27:37.862Z,2.75
2022-11-24T04:30:08.502Z,2.57
2022-11-24T04:32:38.450Z,2.70
2022-11-24T04:35:08.114Z,2.69
2022-11-24T04:37:38.974Z,2.66
2022-11-24T04:40:12.807Z,2.62
2022-11-24T04:42:42.193Z,2.60
2022-11-24T04:45:13.217Z,2.59
2022-11-24T04:47:43.261Z,2.56
2022-11-24T04:50:15.789Z,2.54
2022-11-24T04:52:45.388Z,2.55
2022-11-24T04:55:14.832Z,2.57
2022-11-24T04:57:44.907Z,2.61
2022-11-24T05:00:15.762Z,2.61
2022-11-24T05:02:44.864Z,2.60
2022-11-24T05:05:14.667Z,2.58
2022-11-24T05:07:45.340Z,2.61
2022-11-24T05:10:33.353Z,2.59
2022-11-24T05:13:06.852Z,2.58
2022-11-24T05:15:40.090Z,2.56
2022-11-24T05:18:25.914Z,2.57
2022-11-24T05:21:16.012Z,2.55
2022-11-24T05:23:45.163Z,2.54
2022-11-24T05:26:53.015Z,2.52
2022-11-24T05:29:23.526Z,2.52
2022-11-24T05:32:07.864Z,2.54
2022-11-24T05:34:39.734Z,2.54
2022-11-24T05:37:09.783Z,2.53
2022-11-24T05:39:40.028Z,2.49
2022-11-24T05:42:28.993Z,2.46
2022-11-24T05:45:24.480Z,2.43
2022-11-24T05:47:54.602Z,2.46
2022-11-24T05:50:25.193Z,2.46
2022-11-24T05:52:54.468Z,2.46
2022-11-24T05:55:46.337Z,2.46
2022-11-24T05:58:17.371Z,2.46
2022-11-24T06:00:49.701Z,2.47
2022-11-24T06:03:19.186Z,2.45
2022-11-24T06:05:50.291Z,2.42
2022-11-24T06:08:26.824Z,2.42
2022-11-24T06:11:34.943Z,2.42
2022-11-24T06:14:10.782Z,2.46
2022-11-24T06:16:46.997Z,2.43
2022-11-24T06:19:23.908Z,2.41
2022-11-24T06:21:59.640Z,2.42
2022-11-24T06:24:28.828Z,2.43
2022-11-24T06:27:10.383Z,2.42
2022-11-24T06:29:51.249Z,2.40
2022-11-24T06:32:20.373Z,2.41
2022-11-24T06:34:52.237Z,2.44
2022-11-24T06:37:22.216Z,2.44
2022-11-24T06:40:31.038Z,2.43
2022-11-24T06:43:00.574Z,2.42
2022-11-24T06:45:30.778Z,2.43
2022-11-24T06:48:00.109Z,2.44
2022-11-24T06:50:33.827Z,2.44
2022-11-24T06:53:03.903Z,2.41
2022-11-24T06:55:33.548Z,2.39
2022-11-24T06:58:43.067Z,2.37
2022-11-24T07:01:23.098Z,2.34
2022-11-24T07:03:54.219Z,2.32
2022-11-24T07:06:27.563Z,2.30
2022-11-24T07:08:57.630Z,2.30
2022-11-24T07:11:27.795Z,2.29
2022-11-24T07:14:16.007Z,2.33
2022-11-24T07:16:47.032Z,2.36
2022-11-24T07:19:25.211Z,2.33
2022-11-24T07:21:55.891Z,2.25
2022-11-24T07:24:26.871Z,2.29
2022-11-24T07:41:45.890Z,2.14
2022-11-24T07:44:19.827Z,2.18
2022-11-24T07:47:07.915Z,2.19
2022-11-24T07:49:38.719Z,2.16
2022-11-24T07:52:11.166Z,2.14
2022-11-24T08:12:46.572Z,2.01
2022-11-24T08:15:22.628Z,2.04
2022-11-24T08:18:32.909Z,2.06
2022-11-24T08:21:03.641Z,2.09
2022-11-24T08:27:08.723Z,2.11
2022-11-24T08:29:46.775Z,2.08
2022-11-24T08:32:22.059Z,2.06
2022-11-24T08:35:13.486Z,2.06
2022-11-24T08:50:37.932Z,2.49
2022-11-24T08:53:08.295Z,2.53
2022-11-24T08:59:14.960Z,2.34
2022-11-24T09:05:43.278Z,2.23
2022-11-24T09:15:14.151Z,2.26
2022-11-24T09:17:44.195Z,2.30
2022-11-24T09:24:37.078Z,2.33
2022-11-24T09:27:17.758Z,2.34
2022-11-24T09:30:50.582Z,2.33
2022-11-24T09:33:20.137Z,2.31
2022-11-24T09:35:54.329Z,2.31
2022-11-24T09:38:54.251Z,2.37
2022-11-24T09:46:05.572Z,2.35
2022-11-24T09:55:45.464Z,2.32
2022-11-24T09:59:00.842Z,2.33
2022-11-24T10:04:49.978Z,2.36
2022-11-24T10:07:35.098Z,2.37
2022-11-24T10:10:21.168Z,2.34
2022-11-24T10:13:23.411Z,2.35
2022-11-24T10:19:22.815Z,2.37
2022-11-24T10:22:21.857Z,2.35
2022-11-24T10:25:14.332Z,2.35
2022-11-24T10:29:06.674Z,2.39
2022-11-24T10:31:43.932Z,2.44
2022-11-24T10:47:47.417Z,2.46
2022-11-24T10:54:17.413Z,2.44
2022-11-24T10:56:59.025Z,2.45
2022-11-24T10:59:45.786Z,2.43
2022-11-24T11:02:40.331Z,2.41
2022-11-24T11:05:48.269Z,2.44
2022-11-24T11:12:09.971Z,2.43
2022-11-24T11:15:38.829Z,2.48
2022-11-24T11:18:20.660Z,2.56
2022-11-24T11:23:59.518Z,2.58
2022-11-24T11:26:43.959Z,2.58
2022-11-24T11:38:43.876Z,2.56
2022-11-24T11:42:25.705Z,2.54
2022-11-24T11:45:27.206Z,2.53
2022-11-24T11:48:21.744Z,2.49
2022-11-24T11:51:52.404Z,2.46
2022-11-24T11:54:44.774Z,2.44
2022-11-24T12:05:12.849Z,2.32
2022-11-24T12:09:18.613Z,2.36
2022-11-24T12:15:39.854Z,2.28
2022-11-24T12:39:36.813Z,2.18
2022-11-24T12:49:37.879Z,2.04
2022-11-24T12:55:42.101Z,1.93
2022-11-24T12:58:57.184Z,1.87
2022-11-24T13:05:31.617Z,1.75
2022-11-24T13:08:59.619Z,1.78
2022-11-24T13:11:52.660Z,1.80
2022-11-24T13:18:49.173Z,1.78
2022-11-24T13:21:41.928Z,1.76
2022-11-24T13:24:24.085Z,1.73
2022-11-24T13:30:45.575Z,1.72
2022-11-24T13:33:17.121Z,1.70
2022-11-24T14:01:52.722Z,1.77
2022-11-24T14:04:40.342Z,1.74
2022-11-24T14:07:57.019Z,1.72
2022-11-24T14:13:49.035Z,1.73
2022-11-24T14:16:24.617Z,1.71
2022-11-24T14:22:33.471Z,1.69
2022-11-24T14:28:33.043Z,1.68
2022-11-24T14:31:35.359Z,1.66
2022-11-24T14:40:57.685Z,1.58
2022-11-24T14:43:52.197Z,1.54
2022-11-24T14:46:22.392Z,1.46
2022-11-24T14:48:54.806Z,1.40
2022-11-24T14:51:27.575Z,1.38
2022-11-24T14:54:19.510Z,1.35
2022-11-24T14:57:24.715Z,1.36
2022-11-24T15:03:36.725Z,1.39
2022-11-24T15:30:39.493Z,1.41
2022-11-24T15:33:17.060Z,1.42
2022-11-24T15:36:15.713Z,1.42
2022-11-24T15:39:04.180Z,1.41
2022-11-24T16:15:57.234Z,1.66
2022-11-24T16:18:26.478Z,1.69
2022-11-24T16:24:21.814Z,1.69
2022-11-24T16:30:16.407Z,1.70
2022-11-24T16:33:55.057Z,1.67
2022-11-24T16:39:49.953Z,1.66
2022-11-24T16:42:23.027Z,1.64
2022-11-24T16:44:52.553Z,1.63
2022-11-24T16:50:58.109Z,1.66
2022-11-24T16:53:31.855Z,1.69
2022-11-24T16:57:01.149Z,1.68
2022-11-24T16:59:37.539Z,1.68
2022-11-24T17:02:36.745Z,1.71
2022-11-24T17:05:09.416Z,1.73
2022-11-24T17:11:28.586Z,1.71
2022-11-24T17:17:19.973Z,1.79
2022-11-24T17:19:49.074Z,1.78
2022-11-24T17:23:15.154Z,1.78
2022-11-24T17:25:45.234Z,1.80
2022-11-24T17:32:46.156Z,1.79
2022-11-24T17:35:18.577Z,1.79
2022-11-24T17:37:49.742Z,1.79
2022-11-24T18:00:57.081Z,2.22
2022-11-24T18:03:31.466Z,2.22
2022-11-24T18:09:27.282Z,2.20
2022-11-24T18:15:55.848Z,2.13
2022-11-24T18:18:40.288Z,2.08
2022-11-24T18:22:14.569Z,2.05
2022-11-24T18:24:54.485Z,2.06
2022-11-24T18:34:48.498Z,2.06
2022-11-24T18:37:22.463Z,2.06
2022-11-24T18:39:53.460Z,2.06
2022-11-24T18:42:29.802Z,2.06
2022-11-24T18:48:31.185Z,2.02
2022-11-24T18:51:34.173Z,2.04
2022-11-24T18:54:06.343Z,2.08
2022-11-24T18:56:35.082Z,2.12
2022-11-24T18:59:03.180Z,2.15
2022-11-24T19:01:39.720Z,2.15
2022-11-24T19:04:13.769Z,2.14
2022-11-24T19:06:52.549Z,2.13
2022-11-24T19:09:29.604Z,2.12
2022-11-24T19:12:28.573Z,2.12
2022-11-24T19:14:57.751Z,2.13
2022-11-24T19:17:30.005Z,2.14
2022-11-24T19:20:10.573Z,2.15
2022-11-24T19:22:43.303Z,2.16
2022-11-24T19:25:57.631Z,2.16
2022-11-24T19:28:28.687Z,2.16
2022-11-24T19:31:04.409Z,2.15
2022-11-24T19:33:36.527Z,2.13
2022-11-24T19:36:09.135Z,2.13
2022-11-24T19:38:40.739Z,2.17
2022-11-24T19:41:15.140Z,2.19
2022-11-24T19:43:43.398Z,2.19
2022-11-24T19:46:14.869Z,2.19
2022-11-24T19:52:04.862Z,2.19
2022-11-24T19:54:34.543Z,2.18
2022-11-24T19:57:04.704Z,2.18
2022-11-24T19:59:32.484Z,2.15
2022-11-24T20:02:02.337Z,2.17
2022-11-24T20:04:32.361Z,2.18
2022-11-24T20:07:00.442Z,2.16
2022-11-24T20:09:32.840Z,2.16
2022-11-24T20:12:04.263Z,2.17
2022-11-24T20:14:33.667Z,2.18
2022-11-24T20:17:06.379Z,2.20
2022-11-24T20:22:57.455Z,2.21
2022-11-24T20:25:25.431Z,2.22
2022-11-24T20:27:55.979Z,2.22
2022-11-24T20:30:25.841Z,2.20
2022-11-24T20:32:56.302Z,2.19
2022-11-24T20:35:24.424Z,2.20
2022-11-24T20:37:53.466Z,2.21
2022-11-24T20:40:21.298Z,2.22
2022-11-24T20:42:49.791Z,2.23
2022-11-24T20:45:21.973Z,2.22
2022-11-24T20:50:52.336Z,2.25
2022-11-24T20:53:22.284Z,2.23
2022-11-24T20:55:52.294Z,2.24
2022-11-24T20:58:21.382Z,2.25
2022-11-24T21:01:01.547Z,2.26
2022-11-24T21:03:31.135Z,2.23
2022-11-24T21:06:00.523Z,2.22
2022-11-24T21:08:34.077Z,2.21
2022-11-24T21:11:06.130Z,2.20
2022-11-24T21:13:38.131Z,2.21
2022-11-24T21:16:19.068Z,2.20
2022-11-24T21:18:53.232Z,2.20
2022-11-24T21:21:24.404Z,2.18
2022-11-24T21:23:53.314Z,2.20
2022-11-24T21:26:22.457Z,2.22
2022-11-24T21:28:51.380Z,2.23
2022-11-24T21:31:21.961Z,2.24
2022-11-24T21:33:54.932Z,2.24
2022-11-24T21:36:25.970Z,2.23
2022-11-24T21:38:57.679Z,2.23
2022-11-24T21:41:29.127Z,2.22
2022-11-24T21:43:58.344Z,2.23
2022-11-24T21:46:29.416Z,2.25
2022-11-24T21:48:58.279Z,2.26
2022-11-24T21:51:28.750Z,2.28
2022-11-24T21:53:58.883Z,2.29
2022-11-24T21:56:28.958Z,2.27
2022-11-24T21:58:58.881Z,2.25
2022-11-24T22:01:29.051Z,2.22
2022-11-24T22:03:58.229Z,2.17
2022-11-24T22:06:27.634Z,2.15
2022-11-24T22:08:56.764Z,2.15
2022-11-24T22:11:29.140Z,2.16
2022-11-24T22:13:59.394Z,2.16
2022-11-24T22:16:29.254Z,2.16
2022-11-24T22:19:01.069Z,2.16
2022-11-24T22:21:37.722Z,2.17
2022-11-24T22:24:07.195Z,2.16
2022-11-24T22:26:36.278Z,2.15
2022-11-24T22:29:12.678Z,2.15
2022-11-24T22:31:42.231Z,2.16
2022-11-24T22:34:11.445Z,2.13
2022-11-24T22:36:43.493Z,2.13
2022-11-24T22:39:13.405Z,2.13
2022-11-24T22:41:42.258Z,2.12
2022-11-24T22:44:11.222Z,2.13
2022-11-24T22:46:39.986Z,2.13
2022-11-24T22:49:19.552Z,2.13
2022-11-24T22:51:57.404Z,2.12
2022-11-24T22:54:26.517Z,2.07
2022-11-24T22:56:56.331Z,2.12
2022-11-24T22:59:25.330Z,2.12
2022-11-24T23:06:53.560Z,2.13
2022-11-24T23:09:21.001Z,2.09
2022-11-24T23:11:49.729Z,2.13
2022-11-24T23:14:17.278Z,2.14
2022-11-24T23:16:46.662Z,2.16
2022-11-24T23:19:14.632Z,2.17
2022-11-24T23:21:42.124Z,2.18
2022-11-24T23:24:10.315Z,2.17
2022-11-24T23:26:41.429Z,2.16
2022-11-24T23:29:10.992Z,2.14
2022-11-24T23:31:41.253Z,2.13
2022-11-24T23:34:09.630Z,2.12
2022-11-24T23:36:38.107Z,2.10
2022-11-24T23:39:13.660Z,2.08
2022-11-24T23:41:45.501Z,2.07
2022-11-24T23:44:13.008Z,2.05
2022-11-24T23:46:40.813Z,2.05
2022-11-24T23:49:08.612Z,2.05
2022-11-24T23:51:36.333Z,2.04
2022-11-24T23:54:08.294Z,2.03
2022-11-24T23:56:35.740Z,2.01
2022-11-24T23:59:04.466Z,1.98
